CCGS Neocaligus — CG7677 — position and weather

sailwx.info

Track history (hours):
 
Tides and Currents Weather Stations Pressure Air Temp Water Temp Dewpoint Dewpoint Depression Visibility Wind Speed Wind Dir Waves Ship Positions

CCGS Neocaligus

Last reported at 2017-Feb-19 03:26 UTC. Time now 2017-Feb-21 01:12 UTC.
Position N 49°13' W 123°57'.

Length 23 m; draft 3.5 m.

Type: Fishing. MMSI: 316001759.

Date/timePositionNaut miles runAvg speedWind from/ knotsBaromVisibWave heightAir tempDewpointWater temp
2017-Feb-19 03:26N 49°13' W 123°57'0 0.0
2017-Feb-18 10:14N 49°13' W 123°57'0 0.0
2017-Feb-18 09:32N 49°13' W 123°57'0 0.0
2017-Feb-18 02:06N 49°13' W 123°57'0 0.0
2017-Feb-16 20:14N 49°13' W 123°57'0 0.0
2017-Feb-16 19:31N 49°13' W 123°57'11 8.8
2017-Feb-16 18:19N 49°18' W 123°43'7 9.4
2017-Feb-16 17:33N 49°21' W 123°33'6 6.0
2017-Feb-16 16:33N 49°24' W 123°26'3 2.7
2017-Feb-16 15:33N 49°24' W 123°30'0 0.2
2017-Feb-16 13:12N 49°24' W 123°30'0 0.0
2017-Feb-16 08:33N 49°24' W 123°30'0 0.0
2017-Feb-16 07:24N 49°24' W 123°30'0 0.0
2017-Feb-16 06:33N 49°24' W 123°30'0 0.0
2017-Feb-16 05:24N 49°24' W 123°30'0 0.0
2017-Feb-16 04:30N 49°24' W 123°30'0 0.0
2017-Feb-16 03:30N 49°24' W 123°30'0 0.0
2017-Feb-16 02:30N 49°24' W 123°30'0 0.0
2017-Feb-16 01:33N 49°24' W 123°30'0 0.0
2017-Feb-16 00:33N 49°24' W 123°30'7 7.2
2017-Feb-15 23:33N 49°25' W 123°19'1 0.8
2017-Feb-15 22:33N 49°25' W 123°20'4 4.4
2017-Feb-15 21:33N 49°25' W 123°27'3 2.9
2017-Feb-15 20:33N 49°27' W 123°24'0 0.2
2017-Feb-15 19:33N 49°27' W 123°24'1 1.1
2017-Feb-15 18:34N 49°26' W 123°23'1 1.3
2017-Feb-15 17:33N 49°26' W 123°21'2 2.1
2017-Feb-15 16:33N 49°24' W 123°18'2 1.9
2017-Feb-15 15:33N 49°22' W 123°20'0 0.4
2017-Feb-15 14:33N 49°23' W 123°20'0 0.0
2017-Feb-15 13:33N 49°23' W 123°20'0 0.0
2017-Feb-15 12:33N 49°23' W 123°20'0 0.0
2017-Feb-15 11:33N 49°23' W 123°20'0 0.0
2017-Feb-15 10:33N 49°23' W 123°20'0 0.0
2017-Feb-15 09:33N 49°23' W 123°20'0 0.0
2017-Feb-15 08:33N 49°23' W 123°20'0 0.0
2017-Feb-15 07:33N 49°23' W 123°20'0 0.0
2017-Feb-15 06:33N 49°23' W 123°20'0 0.0
2017-Feb-15 05:33N 49°23' W 123°20'0 0.0
2017-Feb-15 04:33N 49°23' W 123°20'0 0.0
2017-Feb-15 03:33N 49°23' W 123°20'0 0.0
2017-Feb-15 02:33N 49°23' W 123°20'0 0.0
2017-Feb-15 01:33N 49°23' W 123°20'0 0.0
2017-Feb-15 00:33N 49°23' W 123°20'4 4.1
2017-Feb-14 23:33N 49°27' W 123°19'4 4.1
2017-Feb-14 22:33N 49°25' W 123°25'2 1.6
2017-Feb-14 21:33N 49°26' W 123°23'3 2.9
2017-Feb-14 20:33N 49°27' W 123°19'3 3.4
2017-Feb-14 19:33N 49°25' W 123°14'5 4.7
2017-Feb-14 18:33N 49°22' W 123°20'1 1.1
2017-Feb-14 17:33N 49°21' W 123°20'3 2.8
2017-Feb-14 16:33N 49°23' W 123°16'3 3.3
2017-Feb-14 15:33N 49°25' W 123°20'2 2.5
2017-Feb-14 14:33N 49°23' W 123°20'0 0.0
2017-Feb-14 13:33N 49°23' W 123°20'0 0.0
2017-Feb-14 12:33N 49°23' W 123°20'0 0.0
2017-Feb-14 11:32N 49°23' W 123°20'0 0.0
2017-Feb-14 10:33N 49°23' W 123°20'0 0.0
2017-Feb-14 09:33N 49°23' W 123°20'0 0.0
2017-Feb-14 08:33N 49°23' W 123°20'0 0.0
2017-Feb-14 07:33N 49°23' W 123°20'0 0.0
2017-Feb-14 06:33N 49°23' W 123°20'0 0.0
2017-Feb-14 05:33N 49°23' W 123°20'0 0.0
2017-Feb-14 04:33N 49°23' W 123°20'0 0.0
2017-Feb-14 03:33N 49°23' W 123°20'0 0.0
2017-Feb-14 02:32N 49°23' W 123°20'0 0.0
2017-Feb-14 01:33N 49°23' W 123°20'0 0.0
2017-Feb-14 00:33N 49°23' W 123°20'1 0.6
2017-Feb-13 23:33N 49°22' W 123°19'2 2.1
2017-Feb-13 22:33N 49°21' W 123°21'5 4.7
2017-Feb-13 21:33N 49°24' W 123°16'6 5.8
2017-Feb-13 20:33N 49°29' W 123°19'1 1.3
2017-Feb-13 19:33N 49°28' W 123°19'5 4.6
2017-Feb-13 18:33N 49°24' W 123°23'1 0.9
2017-Feb-13 17:33N 49°25' W 123°22'3 3.0
2017-Feb-13 16:33N 49°25' W 123°17'4 4.1
2017-Feb-13 15:33N 49°21' W 123°19'2 2.2
2017-Feb-13 14:33N 49°23' W 123°20'0 0.0
2017-Feb-13 13:33N 49°23' W 123°20'0 0.0
2017-Feb-13 12:33N 49°23' W 123°20'0 0.0
2017-Feb-13 11:33N 49°23' W 123°20'0 0.0
2017-Feb-13 10:33N 49°23' W 123°20'0 0.0
2017-Feb-13 09:33N 49°23' W 123°20'0 0.0
2017-Feb-13 08:33N 49°23' W 123°20'0 0.0
2017-Feb-13 07:33N 49°23' W 123°20'0 0.0
2017-Feb-13 06:33N 49°23' W 123°20'0 0.0
2017-Feb-13 05:33N 49°23' W 123°20'0 0.0
2017-Feb-13 04:33N 49°23' W 123°20'0 0.0
2017-Feb-13 03:33N 49°23' W 123°20'0 0.0
2017-Feb-13 02:33N 49°23' W 123°20'2 2.3
2017-Feb-13 01:33N 49°23' W 123°16'4 4.1
2017-Feb-13 00:33N 49°27' W 123°15'5 4.8
2017-Feb-12 23:33N 49°32' W 123°17'1 1.4
2017-Feb-12 22:33N 49°30' W 123°16'3 2.6
2017-Feb-12 21:33N 49°28' W 123°15'2 2.4
2017-Feb-12 20:33N 49°28' W 123°19'3 3.2
2017-Feb-12 19:33N 49°25' W 123°18'5 5.2
2017-Feb-12 18:33N 49°23' W 123°26'1 1.0
2017-Feb-12 17:33N 49°23' W 123°27'1 0.6
2017-Feb-12 16:33N 49°23' W 123°27'2 2.3
2017-Feb-12 15:33N 49°25' W 123°28'2 1.9
2017-Feb-12 14:29N 49°24' W 123°30'0 0.0
2017-Feb-12 13:23N 49°24' W 123°30'0 0.0
2017-Feb-12 12:29N 49°24' W 123°30'0 0.0
2017-Feb-12 10:26N 49°24' W 123°30'0 0.0
2017-Feb-12 09:32N 49°24' W 123°30'0 0.0
2017-Feb-12 08:26N 49°24' W 123°30'0 0.0
2017-Feb-12 04:29N 49°24' W 123°30'0 0.0
2017-Feb-12 03:23N 49°24' W 123°30'0 0.0
2017-Feb-12 02:32N 49°24' W 123°30'0 0.0
2017-Feb-12 01:29N 49°24' W 123°30'2 2.4
2017-Feb-12 00:33N 49°23' W 123°27'5 5.1
2017-Feb-11 23:34N 49°25' W 123°21'4 3.8
2017-Feb-11 22:33N 49°23' W 123°16'3 2.9
2017-Feb-11 21:33N 49°25' W 123°15'4 4.5
2017-Feb-11 20:33N 49°30' W 123°15'4 4.5
2017-Feb-11 19:33N 49°34' W 123°19'4 3.4
2017-Feb-11 18:31N 49°32' W 123°24'2 1.6
2017-Feb-11 17:33N 49°33' W 123°23'6 5.6
2017-Feb-11 16:33N 49°29' W 123°28'2 1.9
2017-Feb-11 15:34N 49°27' W 123°27'4 3.4
2017-Feb-11 14:29N 49°24' W 123°30'0 0.0
2017-Feb-11 13:29N 49°24' W 123°30'0 0.0
2017-Feb-11 12:29N 49°24' W 123°30'0 0.0
2017-Feb-11 11:29N 49°24' W 123°30'0 0.0
2017-Feb-11 10:29N 49°24' W 123°30'0 0.0
2017-Feb-11 09:29N 49°24' W 123°30'0 0.0
2017-Feb-11 08:29N 49°24' W 123°30'0 0.0
2017-Feb-11 07:29N 49°24' W 123°30'0 0.0
2017-Feb-11 06:26N 49°24' W 123°30'0 0.0
2017-Feb-11 05:32N 49°24' W 123°30'0 0.0
2017-Feb-11 04:26N 49°24' W 123°30'0 0.0
2017-Feb-11 03:32N 49°24' W 123°30'0 0.0
2017-Feb-11 02:32N 49°24' W 123°30'0 0.0
2017-Feb-11 01:32N 49°24' W 123°30'0 0.0
2017-Feb-11 00:29N 49°24' W 123°30'4 4.1
2017-Feb-10 23:33N 49°28' W 123°28'8 7.7
2017-Feb-10 22:33N 49°33' W 123°20'2 2.5
2017-Feb-10 21:33N 49°32' W 123°17'1 1.4
2017-Feb-10 20:33N 49°33' W 123°16'2 2.4
2017-Feb-10 19:32N 49°33' W 123°20'2 1.9
2017-Feb-10 18:27N 49°32' W 123°22'3 2.8
2017-Feb-10 17:33N 49°32' W 123°26'4 4.4
2017-Feb-10 16:33N 49°28' W 123°28'4 3.8
2017-Feb-10 15:33N 49°24' W 123°29'1 0.7
2017-Feb-10 14:31N 49°24' W 123°30'0 0.0
2017-Feb-10 13:13N 49°24' W 123°30'0 0.1
2017-Feb-10 12:31N 49°24' W 123°30'0 0.0
2017-Feb-10 11:31N 49°24' W 123°30'0 0.0
2017-Feb-10 10:28N 49°24' W 123°30'0 0.0
2017-Feb-10 09:31N 49°24' W 123°30'0 0.0
2017-Feb-10 08:31N 49°24' W 123°30'0 0.0
2017-Feb-10 07:28N 49°24' W 123°30'0 0.0
2017-Feb-10 06:31N 49°24' W 123°30'0 0.0
2017-Feb-10 05:31N 49°24' W 123°30'0 0.0
2017-Feb-10 04:31N 49°24' W 123°30'0 0.0
2017-Feb-10 03:31N 49°24' W 123°30'0 0.0
2017-Feb-10 02:31N 49°24' W 123°30'0 0.0
2017-Feb-10 01:31N 49°24' W 123°30'0 0.0
2017-Feb-10 00:32N 49°24' W 123°30'6 5.6
2017-Feb-09 23:31N 49°30' W 123°28'5 4.6
2017-Feb-09 22:30N 49°32' W 123°22'4 3.8
2017-Feb-09 21:33N 49°30' W 123°17'7 3.5
2017-Feb-09 19:33N 49°37' W 123°14'2 2.1
2017-Feb-09 18:33N 49°39' W 123°15'3 2.7
2017-Feb-09 17:33N 49°36' W 123°15'3 2.6
2017-Feb-09 16:34N 49°35' W 123°19'3 3.3
2017-Feb-09 15:33N 49°33' W 123°24'0 0.0
2017-Feb-09 14:32N 49°33' W 123°24'0 0.0
2017-Feb-09 13:32N 49°33' W 123°24'0 0.0
2017-Feb-09 12:32N 49°33' W 123°24'0 0.0
2017-Feb-09 11:32N 49°33' W 123°24'0 0.0
2017-Feb-09 10:32N 49°33' W 123°24'0 0.0
2017-Feb-09 09:32N 49°33' W 123°24'0 0.0
2017-Feb-09 08:29N 49°33' W 123°24'0 0.0
2017-Feb-09 07:32N 49°33' W 123°24'0 0.0
2017-Feb-09 06:29N 49°33' W 123°24'0 0.0
2017-Feb-09 05:32N 49°33' W 123°24'0 0.0
2017-Feb-09 04:32N 49°33' W 123°24'0 0.0
2017-Feb-09 03:32N 49°33' W 123°24'  
Track history (hours):
 
Tides and Currents Weather Stations Pressure Air Temp Water Temp Dewpoint Dewpoint Depression Visibility Wind Speed Wind Dir Waves Ship Positions

CCGS Neocaligus

Last reported at 2017-Feb-19 03:26 UTC. Time now 2017-Feb-21 01:12 UTC.
Position N 49°13' W 123°57'.

Length 23 m; draft 3.5 m.

Type: Fishing. MMSI: 316001759.

Date/timePositionNaut miles runAvg speedWind from/ knotsBaromVisibWave heightAir tempDewpointWater temp
2017-Feb-19 03:26N 49°13' W 123°57'0 0.0
2017-Feb-18 10:14N 49°13' W 123°57'0 0.0
2017-Feb-18 09:32N 49°13' W 123°57'0 0.0
2017-Feb-18 02:06N 49°13' W 123°57'0 0.0
2017-Feb-16 20:14N 49°13' W 123°57'0 0.0
2017-Feb-16 19:31N 49°13' W 123°57'11 8.8
2017-Feb-16 18:19N 49°18' W 123°43'7 9.4
2017-Feb-16 17:33N 49°21' W 123°33'6 6.0
2017-Feb-16 16:33N 49°24' W 123°26'3 2.7
2017-Feb-16 15:33N 49°24' W 123°30'0 0.2
2017-Feb-16 13:12N 49°24' W 123°30'0 0.0
2017-Feb-16 08:33N 49°24' W 123°30'0 0.0
2017-Feb-16 07:24N 49°24' W 123°30'0 0.0
2017-Feb-16 06:33N 49°24' W 123°30'0 0.0
2017-Feb-16 05:24N 49°24' W 123°30'0 0.0
2017-Feb-16 04:30N 49°24' W 123°30'0 0.0
2017-Feb-16 03:30N 49°24' W 123°30'0 0.0
2017-Feb-16 02:30N 49°24' W 123°30'0 0.0
2017-Feb-16 01:33N 49°24' W 123°30'0 0.0
2017-Feb-16 00:33N 49°24' W 123°30'7 7.2
2017-Feb-15 23:33N 49°25' W 123°19'1 0.8
2017-Feb-15 22:33N 49°25' W 123°20'4 4.4
2017-Feb-15 21:33N 49°25' W 123°27'3 2.9
2017-Feb-15 20:33N 49°27' W 123°24'0 0.2
2017-Feb-15 19:33N 49°27' W 123°24'1 1.1
2017-Feb-15 18:34N 49°26' W 123°23'1 1.3
2017-Feb-15 17:33N 49°26' W 123°21'2 2.1
2017-Feb-15 16:33N 49°24' W 123°18'2 1.9
2017-Feb-15 15:33N 49°22' W 123°20'0 0.4
2017-Feb-15 14:33N 49°23' W 123°20'0 0.0
2017-Feb-15 13:33N 49°23' W 123°20'0 0.0
2017-Feb-15 12:33N 49°23' W 123°20'0 0.0
2017-Feb-15 11:33N 49°23' W 123°20'0 0.0
2017-Feb-15 10:33N 49°23' W 123°20'0 0.0
2017-Feb-15 09:33N 49°23' W 123°20'0 0.0
2017-Feb-15 08:33N 49°23' W 123°20'0 0.0
2017-Feb-15 07:33N 49°23' W 123°20'0 0.0
2017-Feb-15 06:33N 49°23' W 123°20'0 0.0
2017-Feb-15 05:33N 49°23' W 123°20'0 0.0
2017-Feb-15 04:33N 49°23' W 123°20'0 0.0
2017-Feb-15 03:33N 49°23' W 123°20'0 0.0
2017-Feb-15 02:33N 49°23' W 123°20'0 0.0
2017-Feb-15 01:33N 49°23' W 123°20'0 0.0
2017-Feb-15 00:33N 49°23' W 123°20'4 4.1
2017-Feb-14 23:33N 49°27' W 123°19'4 4.1
2017-Feb-14 22:33N 49°25' W 123°25'2 1.6
2017-Feb-14 21:33N 49°26' W 123°23'3 2.9
2017-Feb-14 20:33N 49°27' W 123°19'3 3.4
2017-Feb-14 19:33N 49°25' W 123°14'5 4.7
2017-Feb-14 18:33N 49°22' W 123°20'1 1.1
2017-Feb-14 17:33N 49°21' W 123°20'3 2.8
2017-Feb-14 16:33N 49°23' W 123°16'3 3.3
2017-Feb-14 15:33N 49°25' W 123°20'2 2.5
2017-Feb-14 14:33N 49°23' W 123°20'0 0.0
2017-Feb-14 13:33N 49°23' W 123°20'0 0.0
2017-Feb-14 12:33N 49°23' W 123°20'0 0.0
2017-Feb-14 11:32N 49°23' W 123°20'0 0.0
2017-Feb-14 10:33N 49°23' W 123°20'0 0.0
2017-Feb-14 09:33N 49°23' W 123°20'0 0.0
2017-Feb-14 08:33N 49°23' W 123°20'0 0.0
2017-Feb-14 07:33N 49°23' W 123°20'0 0.0
2017-Feb-14 06:33N 49°23' W 123°20'0 0.0
2017-Feb-14 05:33N 49°23' W 123°20'0 0.0
2017-Feb-14 04:33N 49°23' W 123°20'0 0.0
2017-Feb-14 03:33N 49°23' W 123°20'0 0.0
2017-Feb-14 02:32N 49°23' W 123°20'0 0.0
2017-Feb-14 01:33N 49°23' W 123°20'0 0.0
2017-Feb-14 00:33N 49°23' W 123°20'1 0.6
2017-Feb-13 23:33N 49°22' W 123°19'2 2.1
2017-Feb-13 22:33N 49°21' W 123°21'5 4.7
2017-Feb-13 21:33N 49°24' W 123°16'6 5.8
2017-Feb-13 20:33N 49°29' W 123°19'1 1.3
2017-Feb-13 19:33N 49°28' W 123°19'5 4.6
2017-Feb-13 18:33N 49°24' W 123°23'1 0.9
2017-Feb-13 17:33N 49°25' W 123°22'3 3.0
2017-Feb-13 16:33N 49°25' W 123°17'4 4.1
2017-Feb-13 15:33N 49°21' W 123°19'2 2.2
2017-Feb-13 14:33N 49°23' W 123°20'0 0.0
2017-Feb-13 13:33N 49°23' W 123°20'0 0.0
2017-Feb-13 12:33N 49°23' W 123°20'0 0.0
2017-Feb-13 11:33N 49°23' W 123°20'0 0.0
2017-Feb-13 10:33N 49°23' W 123°20'0 0.0
2017-Feb-13 09:33N 49°23' W 123°20'0 0.0
2017-Feb-13 08:33N 49°23' W 123°20'0 0.0
2017-Feb-13 07:33N 49°23' W 123°20'0 0.0
2017-Feb-13 06:33N 49°23' W 123°20'0 0.0
2017-Feb-13 05:33N 49°23' W 123°20'0 0.0
2017-Feb-13 04:33N 49°23' W 123°20'0 0.0
2017-Feb-13 03:33N 49°23' W 123°20'0 0.0
2017-Feb-13 02:33N 49°23' W 123°20'2 2.3
2017-Feb-13 01:33N 49°23' W 123°16'4 4.1
2017-Feb-13 00:33N 49°27' W 123°15'5 4.8
2017-Feb-12 23:33N 49°32' W 123°17'1 1.4
2017-Feb-12 22:33N 49°30' W 123°16'3 2.6
2017-Feb-12 21:33N 49°28' W 123°15'2 2.4
2017-Feb-12 20:33N 49°28' W 123°19'3 3.2
2017-Feb-12 19:33N 49°25' W 123°18'5 5.2
2017-Feb-12 18:33N 49°23' W 123°26'1 1.0
2017-Feb-12 17:33N 49°23' W 123°27'1 0.6
2017-Feb-12 16:33N 49°23' W 123°27'2 2.3
2017-Feb-12 15:33N 49°25' W 123°28'2 1.9
2017-Feb-12 14:29N 49°24' W 123°30'0 0.0
2017-Feb-12 13:23N 49°24' W 123°30'0 0.0
2017-Feb-12 12:29N 49°24' W 123°30'0 0.0
2017-Feb-12 10:26N 49°24' W 123°30'0 0.0
2017-Feb-12 09:32N 49°24' W 123°30'0 0.0
2017-Feb-12 08:26N 49°24' W 123°30'0 0.0
2017-Feb-12 04:29N 49°24' W 123°30'0 0.0
2017-Feb-12 03:23N 49°24' W 123°30'0 0.0
2017-Feb-12 02:32N 49°24' W 123°30'0 0.0
2017-Feb-12 01:29N 49°24' W 123°30'2 2.4
2017-Feb-12 00:33N 49°23' W 123°27'5 5.1
2017-Feb-11 23:34N 49°25' W 123°21'4 3.8
2017-Feb-11 22:33N 49°23' W 123°16'3 2.9
2017-Feb-11 21:33N 49°25' W 123°15'4 4.5
2017-Feb-11 20:33N 49°30' W 123°15'4 4.5
2017-Feb-11 19:33N 49°34' W 123°19'4 3.4
2017-Feb-11 18:31N 49°32' W 123°24'2 1.6
2017-Feb-11 17:33N 49°33' W 123°23'6 5.6
2017-Feb-11 16:33N 49°29' W 123°28'2 1.9
2017-Feb-11 15:34N 49°27' W 123°27'4 3.4
2017-Feb-11 14:29N 49°24' W 123°30'0 0.0
2017-Feb-11 13:29N 49°24' W 123°30'0 0.0
2017-Feb-11 12:29N 49°24' W 123°30'0 0.0
2017-Feb-11 11:29N 49°24' W 123°30'0 0.0
2017-Feb-11 10:29N 49°24' W 123°30'0 0.0
2017-Feb-11 09:29N 49°24' W 123°30'0 0.0
2017-Feb-11 08:29N 49°24' W 123°30'0 0.0
2017-Feb-11 07:29N 49°24' W 123°30'0 0.0
2017-Feb-11 06:26N 49°24' W 123°30'0 0.0
2017-Feb-11 05:32N 49°24' W 123°30'0 0.0
2017-Feb-11 04:26N 49°24' W 123°30'0 0.0
2017-Feb-11 03:32N 49°24' W 123°30'0 0.0
2017-Feb-11 02:32N 49°24' W 123°30'0 0.0
2017-Feb-11 01:32N 49°24' W 123°30'0 0.0
2017-Feb-11 00:29N 49°24' W 123°30'4 4.1
2017-Feb-10 23:33N 49°28' W 123°28'8 7.7
2017-Feb-10 22:33N 49°33' W 123°20'2 2.5
2017-Feb-10 21:33N 49°32' W 123°17'1 1.4
2017-Feb-10 20:33N 49°33' W 123°16'2 2.4
2017-Feb-10 19:32N 49°33' W 123°20'2 1.9
2017-Feb-10 18:27N 49°32' W 123°22'3 2.8
2017-Feb-10 17:33N 49°32' W 123°26'4 4.4
2017-Feb-10 16:33N 49°28' W 123°28'4 3.8
2017-Feb-10 15:33N 49°24' W 123°29'1 0.7
2017-Feb-10 14:31N 49°24' W 123°30'0 0.0
2017-Feb-10 13:13N 49°24' W 123°30'0 0.1
2017-Feb-10 12:31N 49°24' W 123°30'0 0.0
2017-Feb-10 11:31N 49°24' W 123°30'0 0.0
2017-Feb-10 10:28N 49°24' W 123°30'0 0.0
2017-Feb-10 09:31N 49°24' W 123°30'0 0.0
2017-Feb-10 08:31N 49°24' W 123°30'0 0.0
2017-Feb-10 07:28N 49°24' W 123°30'0 0.0
2017-Feb-10 06:31N 49°24' W 123°30'0 0.0
2017-Feb-10 05:31N 49°24' W 123°30'0 0.0
2017-Feb-10 04:31N 49°24' W 123°30'0 0.0
2017-Feb-10 03:31N 49°24' W 123°30'0 0.0
2017-Feb-10 02:31N 49°24' W 123°30'0 0.0
2017-Feb-10 01:31N 49°24' W 123°30'0 0.0
2017-Feb-10 00:32N 49°24' W 123°30'6 5.6
2017-Feb-09 23:31N 49°30' W 123°28'5 4.6
2017-Feb-09 22:30N 49°32' W 123°22'4 3.8
2017-Feb-09 21:33N 49°30' W 123°17'7 3.5
2017-Feb-09 19:33N 49°37' W 123°14'2 2.1
2017-Feb-09 18:33N 49°39' W 123°15'3 2.7
2017-Feb-09 17:33N 49°36' W 123°15'3 2.6
2017-Feb-09 16:34N 49°35' W 123°19'3 3.3
2017-Feb-09 15:33N 49°33' W 123°24'0 0.0
2017-Feb-09 14:32N 49°33' W 123°24'0 0.0
2017-Feb-09 13:32N 49°33' W 123°24'0 0.0
2017-Feb-09 12:32N 49°33' W 123°24'0 0.0
2017-Feb-09 11:32N 49°33' W 123°24'0 0.0
2017-Feb-09 10:32N 49°33' W 123°24'0 0.0
2017-Feb-09 09:32N 49°33' W 123°24'0 0.0
2017-Feb-09 08:29N 49°33' W 123°24'0 0.0
2017-Feb-09 07:32N 49°33' W 123°24'0 0.0
2017-Feb-09 06:29N 49°33' W 123°24'0 0.0
2017-Feb-09 05:32N 49°33' W 123°24'0 0.0
2017-Feb-09 04:32N 49°33' W 123°24'0 0.0
2017-Feb-09 03:32N 49°33' W 123°24'  

Dump ship's entire track history